createdAt,value
2023-05-19T00:00:15.455Z,99.92
2023-05-19T00:02:44.450Z,100.00
2023-05-19T00:05:15.213Z,99.59
2023-05-19T00:07:45.654Z,99.43
2023-05-19T00:10:14.625Z,99.84
2023-05-19T00:12:44.133Z,100.00
2023-05-19T00:15:14.946Z,100.00
2023-05-19T00:17:43.208Z,100.00
2023-05-19T00:20:12.732Z,100.00
2023-05-19T00:22:40.746Z,100.00
2023-05-19T00:25:09.357Z,100.00
2023-05-19T00:27:37.288Z,100.00
2023-05-19T00:30:05.950Z,100.00
2023-05-19T00:32:36.403Z,100.00
2023-05-19T00:35:04.477Z,100.00
2023-05-19T00:37:32.428Z,100.00
2023-05-19T00:40:00.427Z,100.00
2023-05-19T00:42:28.539Z,100.00
2023-05-19T00:44:56.549Z,100.00
2023-05-19T00:47:24.628Z,100.00
2023-05-19T00:49:54.188Z,100.00
2023-05-19T00:52:22.243Z,100.00
2023-05-19T00:54:50.642Z,100.00
2023-05-19T00:57:18.804Z,100.00
2023-05-19T00:59:46.916Z,100.00
2023-05-19T01:02:15.090Z,100.00
2023-05-19T01:04:44.573Z,100.00
2023-05-19T01:07:14.126Z,100.00
2023-05-19T01:09:42.365Z,100.00
2023-05-19T01:12:10.665Z,100.00
2023-05-19T01:14:38.747Z,100.00
2023-05-19T01:17:11.071Z,100.00
2023-05-19T01:19:57.497Z,100.00
2023-05-19T01:22:42.965Z,100.00
2023-05-19T01:25:55.451Z,100.00
2023-05-19T01:28:38.035Z,100.00
2023-05-19T01:31:10.097Z,100.00
2023-05-19T01:33:40.582Z,100.00
2023-05-19T01:36:09.504Z,100.00
2023-05-19T01:38:39.892Z,100.00
2023-05-19T01:41:08.762Z,100.00
2023-05-19T01:43:37.482Z,100.00
2023-05-19T01:46:07.976Z,100.00
2023-05-19T01:48:36.074Z,100.00
2023-05-19T01:51:04.092Z,100.00
2023-05-19T01:53:32.129Z,100.00
2023-05-19T01:56:00.810Z,100.00
2023-05-19T01:58:36.782Z,100.00
2023-05-19T02:01:15.493Z,100.00
2023-05-19T02:04:02.624Z,100.00
2023-05-19T02:06:38.172Z,100.00
2023-05-19T02:09:16.817Z,100.00
2023-05-19T02:11:48.658Z,100.00
2023-05-19T02:14:21.304Z,100.00
2023-05-19T02:16:50.648Z,100.00
2023-05-19T02:19:23.471Z,100.00
2023-05-19T02:21:52.315Z,100.00
2023-05-19T02:24:22.865Z,100.00
2023-05-19T02:26:51.886Z,100.00
2023-05-19T02:29:20.423Z,100.00
2023-05-19T02:31:48.659Z,100.00
2023-05-19T02:34:18.199Z,100.00
2023-05-19T02:36:49.779Z,100.00
2023-05-19T02:39:17.781Z,100.00
2023-05-19T02:41:45.815Z,100.00
2023-05-19T02:44:13.822Z,100.00
2023-05-19T02:46:41.823Z,100.00
2023-05-19T02:49:11.389Z,100.00
2023-05-19T02:51:40.704Z,100.00
2023-05-19T02:54:08.591Z,100.00
2023-05-19T02:56:36.517Z,100.00
2023-05-19T02:59:04.438Z,100.00
2023-05-19T03:01:33.828Z,100.00
2023-05-19T03:04:02.146Z,100.00
2023-05-19T03:06:32.503Z,100.00
2023-05-19T03:09:01.836Z,100.00
2023-05-19T03:11:30.938Z,100.00
2023-05-19T03:13:59.531Z,100.00
2023-05-19T03:16:28.231Z,100.00
2023-05-19T03:18:56.452Z,100.00
2023-05-19T03:21:24.478Z,100.00
2023-05-19T03:23:52.564Z,100.00
2023-05-19T03:26:23.163Z,100.00
2023-05-19T03:28:51.226Z,100.00
2023-05-19T03:31:19.299Z,100.00
2023-05-19T03:33:47.321Z,100.00
2023-05-19T03:36:15.359Z,100.00
2023-05-19T03:38:43.351Z,100.00
2023-05-19T03:41:11.215Z,100.00
2023-05-19T03:43:40.575Z,100.00
2023-05-19T03:46:08.553Z,100.00
2023-05-19T03:48:36.549Z,100.00
2023-05-19T03:51:05.029Z,100.00
2023-05-19T03:53:33.515Z,100.00
2023-05-19T03:56:01.754Z,100.00
2023-05-19T03:58:30.251Z,100.00
2023-05-19T04:00:59.572Z,100.00
2023-05-19T04:03:28.592Z,100.00
2023-05-19T04:05:56.634Z,100.00
2023-05-19T04:08:24.529Z,100.00
2023-05-19T04:10:52.544Z,100.00
2023-05-19T04:13:20.393Z,100.00
2023-05-19T04:15:48.630Z,100.00
2023-05-19T04:18:17.905Z,100.00
2023-05-19T04:20:45.865Z,100.00
2023-05-19T04:23:13.840Z,100.00
2023-05-19T04:25:42.245Z,100.00
2023-05-19T04:28:10.371Z,100.00
2023-05-19T04:30:38.700Z,100.00
2023-05-19T04:33:07.719Z,100.00
2023-05-19T04:35:38.212Z,100.00
2023-05-19T04:38:05.872Z,100.00
2023-05-19T04:40:33.947Z,100.00
2023-05-19T04:43:02.367Z,100.00
2023-05-19T04:45:30.426Z,100.00
2023-05-19T04:47:58.681Z,100.00
2023-05-19T04:50:26.640Z,100.00
2023-05-19T04:52:55.939Z,100.00
2023-05-19T04:55:23.985Z,100.00
2023-05-19T04:57:51.941Z,100.00
2023-05-19T05:00:21.321Z,100.00
2023-05-19T05:02:50.076Z,100.00
2023-05-19T05:05:18.276Z,100.00
2023-05-19T05:07:46.353Z,100.00
2023-05-19T05:10:15.765Z,100.00
2023-05-19T05:12:44.027Z,99.13
2023-05-19T05:15:13.312Z,99.20
2023-05-19T05:17:41.818Z,97.96
2023-05-19T05:20:11.800Z,97.15
2023-05-19T05:22:40.258Z,96.69
2023-05-19T05:25:09.678Z,96.79
2023-05-19T05:27:38.968Z,96.37
2023-05-19T05:30:08.141Z,94.77
2023-05-19T05:32:36.412Z,94.66
2023-05-19T05:35:04.724Z,93.99
2023-05-19T05:37:32.639Z,93.01
2023-05-19T05:40:00.506Z,92.08
2023-05-19T05:42:29.778Z,91.29
2023-05-19T05:44:59.330Z,91.09
2023-05-19T05:47:28.133Z,90.71
2023-05-19T05:49:56.676Z,90.04
2023-05-19T05:52:29.712Z,89.85
2023-05-19T05:54:58.419Z,90.22
2023-05-19T05:57:27.047Z,88.96
2023-05-19T05:59:55.590Z,87.44
2023-05-19T06:02:25.040Z,86.75
2023-05-19T06:04:54.214Z,85.69
2023-05-19T06:07:22.566Z,85.54
2023-05-19T06:09:50.494Z,85.52
2023-05-19T06:12:18.466Z,85.65
2023-05-19T06:14:46.412Z,83.98
2023-05-19T06:17:14.437Z,81.41
2023-05-19T06:19:43.854Z,81.04
2023-05-19T06:22:11.886Z,79.91
2023-05-19T06:24:39.919Z,80.01
2023-05-19T06:27:07.858Z,78.50
2023-05-19T06:29:35.909Z,76.91
2023-05-19T06:32:04.001Z,75.91
2023-05-19T06:34:32.316Z,75.79
2023-05-19T06:37:02.536Z,75.43
2023-05-19T06:39:30.635Z,75.14
2023-05-19T06:41:58.653Z,74.25
2023-05-19T06:44:26.744Z,73.10
2023-05-19T06:46:54.637Z,71.86
2023-05-19T06:49:22.609Z,72.29
2023-05-19T06:51:50.559Z,71.92
2023-05-19T06:54:19.927Z,72.49
2023-05-19T06:56:48.010Z,70.01
2023-05-19T06:59:16.257Z,69.84
2023-05-19T07:01:44.197Z,69.29
2023-05-19T07:04:12.263Z,69.07
2023-05-19T07:06:40.222Z,68.64
2023-05-19T07:09:08.945Z,69.74
2023-05-19T07:11:38.584Z,69.13
2023-05-19T07:14:06.516Z,69.30
2023-05-19T07:16:34.510Z,69.75
2023-05-19T07:19:02.514Z,69.01
2023-05-19T07:21:30.778Z,69.81
2023-05-19T07:23:58.733Z,68.25
2023-05-19T07:26:27.415Z,68.99
2023-05-19T07:28:57.858Z,68.10
2023-05-19T07:31:26.012Z,62.40
2023-05-19T07:33:54.877Z,67.91
2023-05-19T07:36:22.894Z,67.45
2023-05-19T07:38:51.076Z,67.03
2023-05-19T07:41:19.077Z,69.06
2023-05-19T07:43:47.104Z,69.58
2023-05-19T07:46:16.435Z,67.01
2023-05-19T07:48:44.406Z,69.69
2023-05-19T07:51:13.628Z,68.88
2023-05-19T07:53:41.632Z,68.27
2023-05-19T07:56:09.642Z,67.56
2023-05-19T07:58:37.567Z,67.85
2023-05-19T08:01:06.463Z,68.07
2023-05-19T08:03:35.853Z,69.08
2023-05-19T08:06:03.961Z,68.54
2023-05-19T08:08:33.444Z,67.66
2023-05-19T08:11:04.515Z,67.61
2023-05-19T08:13:32.790Z,65.62
2023-05-19T08:16:00.880Z,66.95
2023-05-19T08:18:28.873Z,67.30
2023-05-19T08:20:58.623Z,65.66
2023-05-19T08:23:26.688Z,66.34
2023-05-19T08:25:54.654Z,65.82
2023-05-19T08:28:22.595Z,66.79
2023-05-19T08:30:52.295Z,66.10
2023-05-19T08:33:21.512Z,65.92
2023-05-19T08:35:49.812Z,68.47
2023-05-19T08:38:19.124Z,66.42
2023-05-19T08:40:48.453Z,67.31
2023-05-19T08:43:16.485Z,66.28
2023-05-19T08:45:46.532Z,65.27
2023-05-19T08:48:15.585Z,67.18
2023-05-19T08:50:51.327Z,66.17
2023-05-19T08:56:04.011Z,67.07
2023-05-19T08:58:33.384Z,67.77
2023-05-19T09:01:03.211Z,65.86
2023-05-19T09:03:32.868Z,66.86
2023-05-19T09:06:00.909Z,67.60
2023-05-19T09:08:30.461Z,68.46
2023-05-19T09:10:58.427Z,66.15
2023-05-19T09:13:26.425Z,65.51
2023-05-19T09:15:54.747Z,66.16
2023-05-19T09:18:22.773Z,64.56
2023-05-19T09:20:51.012Z,63.19
2023-05-19T09:23:19.285Z,64.82
2023-05-19T09:25:53.081Z,64.72
2023-05-19T09:28:28.093Z,62.63
2023-05-19T09:31:04.305Z,65.81
2023-05-19T09:33:34.608Z,66.38
2023-05-19T09:36:03.335Z,66.41
2023-05-19T09:38:31.320Z,64.13
2023-05-19T09:41:01.344Z,62.57
2023-05-19T09:43:30.153Z,66.12
2023-05-19T09:46:01.758Z,64.41
2023-05-19T09:48:30.441Z,64.68
2023-05-19T09:50:59.144Z,63.54
2023-05-19T09:53:27.341Z,65.61
2023-05-19T09:55:57.717Z,64.75
2023-05-19T09:58:27.985Z,63.13
2023-05-19T10:00:57.015Z,64.38
2023-05-19T10:03:26.443Z,62.75
2023-05-19T10:05:54.841Z,64.79
2023-05-19T10:08:24.534Z,64.50
2023-05-19T10:10:52.541Z,63.17
2023-05-19T10:13:22.902Z,63.08
2023-05-19T10:15:58.906Z,63.51
2023-05-19T10:18:29.565Z,63.89
2023-05-19T10:20:58.936Z,65.31
2023-05-19T10:23:26.985Z,65.16
2023-05-19T10:25:57.826Z,64.79
2023-05-19T10:28:30.360Z,66.35
2023-05-19T10:31:02.767Z,64.32
2023-05-19T10:33:43.217Z,61.64
2023-05-19T10:36:25.405Z,59.53
2023-05-19T10:39:00.284Z,63.46
2023-05-19T10:41:35.365Z,62.69
2023-05-19T10:44:11.101Z,61.57
2023-05-19T10:46:41.282Z,62.88
2023-05-19T10:49:09.631Z,62.18
2023-05-19T10:51:38.272Z,61.46
2023-05-19T10:54:11.545Z,61.92
2023-05-19T10:56:42.617Z,60.42
2023-05-19T10:59:34.292Z,56.97
2023-05-19T11:02:06.685Z,59.37
2023-05-19T11:04:49.536Z,57.65
2023-05-19T11:07:21.066Z,61.90
2023-05-19T11:09:52.294Z,60.41
2023-05-19T11:12:25.509Z,60.10
2023-05-19T11:14:53.995Z,59.17
2023-05-19T11:17:26.331Z,60.82
2023-05-19T11:19:56.022Z,59.38
2023-05-19T11:22:26.079Z,59.32
2023-05-19T11:24:56.202Z,59.91
2023-05-19T11:27:28.965Z,57.62
2023-05-19T11:29:59.244Z,57.83
2023-05-19T11:32:30.940Z,57.41
2023-05-19T11:34:59.286Z,55.87
2023-05-19T11:37:28.747Z,56.20
2023-05-19T11:39:56.679Z,56.69
2023-05-19T11:42:25.225Z,58.31
2023-05-19T11:44:56.869Z,59.79
2023-05-19T11:47:24.983Z,59.56
2023-05-19T11:49:56.689Z,57.96
2023-05-19T11:52:25.400Z,57.83
2023-05-19T11:54:53.488Z,58.96
2023-05-19T11:57:21.558Z,60.28
2023-05-19T11:59:52.325Z,58.46
2023-05-19T12:02:22.148Z,60.35
2023-05-19T12:04:50.685Z,58.95
2023-05-19T12:07:22.936Z,56.46
2023-05-19T12:09:52.146Z,57.09
2023-05-19T12:12:21.056Z,58.26
2023-05-19T12:14:50.203Z,57.20
2023-05-19T12:17:20.149Z,58.42
2023-05-19T12:19:49.767Z,57.34
2023-05-19T12:22:20.609Z,58.29
2023-05-19T12:24:49.103Z,57.43
2023-05-19T12:27:20.568Z,57.59
2023-05-19T12:29:51.777Z,56.79
2023-05-19T12:32:20.321Z,56.76
2023-05-19T12:34:48.297Z,57.63
2023-05-19T12:37:16.423Z,58.09
2023-05-19T12:39:46.106Z,58.45
2023-05-19T12:42:14.181Z,56.71
2023-05-19T12:44:46.810Z,56.14
2023-05-19T12:47:15.743Z,56.02
2023-05-19T12:49:55.774Z,56.94
2023-05-19T12:52:24.191Z,56.55
2023-05-19T12:54:59.885Z,55.21
2023-05-19T12:57:28.291Z,56.01
2023-05-19T13:00:01.945Z,55.28
2023-05-19T13:02:30.006Z,57.99
2023-05-19T13:04:58.764Z,57.49
2023-05-19T13:07:26.642Z,59.05
2023-05-19T13:09:56.629Z,56.06
2023-05-19T13:12:24.739Z,55.26
2023-05-19T13:14:55.423Z,55.36
2023-05-19T13:17:23.730Z,54.77
2023-05-19T13:19:51.729Z,55.98
2023-05-19T13:22:19.736Z,54.79
2023-05-19T13:24:48.279Z,55.64
2023-05-19T13:27:17.699Z,55.91
2023-05-19T13:29:45.715Z,54.21
2023-05-19T13:32:13.557Z,54.47
2023-05-19T13:34:41.443Z,54.15
2023-05-19T13:37:10.297Z,54.22
2023-05-19T13:39:39.061Z,55.46
2023-05-19T13:42:07.708Z,54.60
2023-05-19T13:44:37.132Z,56.35
2023-05-19T13:47:05.337Z,56.30
2023-05-19T13:49:33.256Z,55.94
2023-05-19T13:52:01.181Z,54.45
2023-05-19T13:54:29.145Z,55.65
2023-05-19T13:56:57.466Z,54.55
2023-05-19T13:59:26.783Z,55.17
2023-05-19T14:01:56.321Z,55.04
2023-05-19T14:04:24.824Z,55.68
2023-05-19T14:06:52.902Z,56.06
2023-05-19T14:09:20.866Z,54.80
2023-05-19T14:11:48.860Z,56.40
2023-05-19T14:14:17.543Z,56.10
2023-05-19T14:16:45.489Z,54.49
2023-05-19T14:19:14.942Z,54.21
2023-05-19T14:21:42.870Z,54.83
2023-05-19T14:24:10.917Z,54.76
2023-05-19T14:26:38.959Z,55.03
2023-05-19T14:29:07.018Z,56.13
2023-05-19T14:31:35.347Z,57.24
2023-05-19T14:34:03.356Z,54.98
2023-05-19T14:36:33.965Z,56.16
2023-05-19T14:39:02.156Z,57.33
2023-05-19T14:41:30.016Z,57.81
2023-05-19T14:43:57.930Z,57.18
2023-05-19T14:46:25.887Z,56.63
2023-05-19T14:48:53.876Z,55.05
2023-05-19T14:51:21.976Z,55.77
2023-05-19T14:53:51.561Z,55.63
2023-05-19T14:56:19.489Z,55.80
2023-05-19T14:58:47.390Z,56.20
2023-05-19T15:01:15.435Z,55.15
2023-05-19T15:03:43.561Z,55.88
2023-05-19T15:06:11.764Z,55.89
2023-05-19T15:08:40.831Z,55.55
2023-05-19T15:11:10.154Z,55.79
2023-05-19T15:13:38.072Z,56.01
2023-05-19T15:16:17.728Z,55.27
2023-05-19T15:18:46.249Z,54.38
2023-05-19T15:21:14.291Z,54.35
2023-05-19T15:23:42.634Z,53.55
2023-05-19T15:26:12.153Z,53.08
2023-05-19T15:28:40.154Z,52.94
2023-05-19T15:31:08.522Z,55.79
2023-05-19T15:33:36.858Z,55.11
2023-05-19T15:36:05.043Z,54.20
2023-05-19T15:38:36.388Z,55.78
2023-05-19T15:41:08.180Z,54.71
2023-05-19T15:43:37.465Z,54.99
2023-05-19T15:46:06.015Z,54.87
2023-05-19T15:48:34.427Z,56.36
2023-05-19T15:51:02.461Z,54.95
2023-05-19T15:53:30.439Z,54.88
2023-05-19T15:55:58.467Z,55.15
2023-05-19T15:58:26.494Z,56.51
2023-05-19T16:00:55.903Z,55.29
2023-05-19T16:03:23.976Z,55.97
2023-05-19T16:05:52.144Z,55.30
2023-05-19T16:08:20.104Z,56.43
2023-05-19T16:10:47.955Z,55.55
2023-05-19T16:13:15.842Z,56.67
2023-05-19T16:15:43.872Z,56.78
2023-05-19T16:18:13.333Z,56.22
2023-05-19T16:20:41.481Z,56.33
2023-05-19T16:23:09.483Z,56.22
2023-05-19T16:25:37.439Z,56.25
2023-05-19T16:28:05.806Z,57.25
2023-05-19T16:30:34.012Z,57.21
2023-05-19T16:33:02.450Z,57.76
2023-05-19T16:35:32.201Z,56.90
2023-05-19T16:38:00.291Z,57.26
2023-05-19T16:40:30.710Z,56.89
2023-05-19T16:42:59.116Z,56.47
2023-05-19T16:45:27.438Z,57.01
2023-05-19T16:47:55.434Z,56.47
2023-05-19T16:50:23.433Z,56.88
2023-05-19T16:52:52.899Z,56.20
2023-05-19T16:55:20.881Z,55.80
2023-05-19T16:57:48.750Z,55.90
2023-05-19T17:00:17.259Z,56.44
2023-05-19T17:02:45.316Z,56.53
2023-05-19T17:05:13.387Z,56.69
2023-05-19T17:07:41.458Z,56.66
2023-05-19T17:10:11.518Z,56.56
2023-05-19T17:12:39.462Z,57.00
2023-05-19T17:15:08.410Z,56.34
2023-05-19T17:17:36.360Z,56.56
2023-05-19T17:20:04.558Z,56.96
2023-05-19T17:22:32.568Z,57.05
2023-05-19T17:25:01.932Z,56.78
2023-05-19T17:27:31.266Z,56.54
2023-05-19T17:29:59.231Z,56.55
2023-05-19T17:32:28.979Z,57.01
2023-05-19T17:34:57.224Z,56.77
2023-05-19T17:37:25.842Z,56.96
2023-05-19T17:39:53.775Z,57.16
2023-05-19T17:42:21.798Z,57.56
2023-05-19T17:44:51.222Z,56.83
2023-05-19T17:47:19.184Z,56.47
2023-05-19T17:49:47.926Z,56.24
2023-05-19T17:52:16.728Z,57.00
2023-05-19T17:54:45.066Z,56.40
2023-05-19T17:57:13.434Z,57.17
2023-05-19T17:59:41.988Z,58.58
2023-05-19T18:02:12.152Z,58.03
2023-05-19T18:04:40.826Z,57.94
2023-05-19T18:07:10.456Z,59.07
2023-05-19T18:09:39.561Z,59.50
2023-05-19T18:12:08.062Z,59.27
2023-05-19T18:14:35.947Z,59.58
2023-05-19T18:17:03.888Z,59.54
2023-05-19T18:19:33.301Z,58.31
2023-05-19T18:22:01.484Z,58.52
2023-05-19T18:24:29.364Z,58.94
2023-05-19T18:26:57.572Z,58.57
2023-05-19T18:29:25.548Z,59.55
2023-05-19T18:31:53.529Z,59.95
2023-05-19T18:34:21.486Z,59.43
2023-05-19T18:36:50.840Z,59.20
2023-05-19T18:39:18.828Z,58.95
2023-05-19T18:41:47.500Z,60.09
2023-05-19T18:44:15.534Z,58.89
2023-05-19T18:46:43.493Z,59.16
2023-05-19T18:49:11.982Z,58.69
2023-05-19T18:51:40.068Z,59.60
2023-05-19T18:54:09.434Z,60.10
2023-05-19T18:56:37.497Z,59.64
2023-05-19T18:59:05.421Z,59.48
2023-05-19T19:01:33.328Z,60.74
2023-05-19T19:04:02.065Z,60.13
2023-05-19T19:06:30.071Z,60.68
2023-05-19T19:08:57.981Z,60.64
2023-05-19T19:11:27.474Z,59.79
2023-05-19T19:13:56.779Z,60.45
2023-05-19T19:16:24.809Z,61.34
2023-05-19T19:18:52.857Z,60.38
2023-05-19T19:21:24.050Z,60.47
2023-05-19T19:23:53.972Z,59.67
2023-05-19T19:26:22.821Z,59.75
2023-05-19T19:28:52.204Z,60.25
2023-05-19T19:31:20.221Z,60.01
2023-05-19T19:33:48.231Z,60.44
2023-05-19T19:36:16.209Z,60.32
2023-05-19T19:38:44.196Z,60.58
2023-05-19T19:41:12.086Z,60.65
2023-05-19T19:43:40.005Z,60.69
2023-05-19T19:46:09.504Z,61.11
2023-05-19T19:48:37.486Z,61.47
2023-05-19T19:51:05.778Z,61.62
2023-05-19T19:53:33.704Z,61.95
2023-05-19T19:56:02.966Z,61.37
2023-05-19T19:58:31.358Z,61.64
2023-05-19T20:00:59.827Z,61.58
2023-05-19T20:03:29.566Z,62.11
2023-05-19T20:05:57.733Z,62.82
2023-05-19T20:08:26.064Z,62.85
2023-05-19T20:10:54.726Z,63.37
2023-05-19T20:13:22.733Z,63.76
2023-05-19T20:15:50.720Z,64.68
2023-05-19T20:18:18.783Z,64.51
2023-05-19T20:20:48.223Z,64.73
2023-05-19T20:23:16.295Z,64.56
2023-05-19T20:26:02.314Z,65.83
2023-05-19T20:28:32.217Z,65.84
2023-05-19T20:31:00.356Z,66.82
2023-05-19T20:33:28.345Z,66.95
2023-05-19T20:35:57.743Z,66.79
2023-05-19T20:38:25.636Z,67.39
2023-05-19T20:40:55.237Z,68.04
2023-05-19T20:43:23.179Z,69.03
2023-05-19T20:45:51.396Z,68.36
2023-05-19T20:48:19.512Z,69.00
2023-05-19T20:50:47.591Z,68.96
2023-05-19T20:53:17.011Z,69.53
2023-05-19T20:55:45.579Z,69.00
2023-05-19T20:58:13.554Z,69.53
2023-05-19T21:00:41.672Z,70.79
2023-05-19T21:03:09.658Z,70.10
2023-05-19T21:05:37.630Z,71.61
2023-05-19T21:08:05.764Z,71.27
2023-05-19T21:10:35.252Z,72.53
2023-05-19T21:13:03.255Z,72.84
2023-05-19T21:15:31.218Z,73.02
2023-05-19T21:17:59.217Z,72.60
2023-05-19T21:20:29.168Z,74.03
2023-05-19T21:22:57.056Z,74.06
2023-05-19T21:25:24.948Z,74.20
2023-05-19T21:27:55.520Z,74.11
2023-05-19T21:30:24.099Z,73.80
2023-05-19T21:32:52.195Z,74.16
2023-05-19T21:35:20.213Z,74.25
2023-05-19T21:37:48.262Z,74.12
2023-05-19T21:40:16.181Z,75.31
2023-05-19T21:42:44.211Z,75.65
2023-05-19T21:45:13.803Z,75.15
2023-05-19T21:47:41.777Z,76.57
2023-05-19T21:50:11.029Z,77.46
2023-05-19T21:52:38.924Z,77.38
2023-05-19T21:55:08.196Z,77.33
2023-05-19T21:57:36.144Z,77.45
2023-05-19T22:00:06.502Z,77.81
2023-05-19T22:02:35.684Z,82.39
2023-05-19T22:05:03.982Z,79.36
2023-05-19T22:07:31.913Z,79.06
2023-05-19T22:09:59.887Z,78.13
2023-05-19T22:12:27.850Z,78.51
2023-05-19T22:14:56.061Z,80.35
2023-05-19T22:17:24.114Z,80.09
2023-05-19T22:19:53.604Z,80.91
2023-05-19T22:22:21.661Z,80.05
2023-05-19T22:24:49.607Z,80.17
2023-05-19T22:27:17.628Z,80.89
2023-05-19T22:29:45.893Z,81.10
2023-05-19T22:32:14.169Z,80.73
2023-05-19T22:34:42.179Z,81.58
2023-05-19T22:37:11.473Z,80.64
2023-05-19T22:39:39.627Z,81.94
2023-05-19T22:42:07.609Z,83.08
2023-05-19T22:44:35.509Z,84.73
2023-05-19T22:47:03.484Z,85.42
2023-05-19T22:49:31.570Z,84.84
2023-05-19T22:51:59.484Z,85.25
2023-05-19T22:54:28.764Z,86.35
2023-05-19T22:56:56.725Z,86.40
2023-05-19T22:59:24.739Z,86.29
2023-05-19T23:01:52.888Z,86.87
2023-05-19T23:04:21.199Z,86.56
2023-05-19T23:06:50.068Z,87.75
2023-05-19T23:09:18.053Z,86.96
2023-05-19T23:11:47.440Z,87.30
2023-05-19T23:14:15.425Z,87.19
2023-05-19T23:16:43.582Z,87.85
2023-05-19T23:19:11.588Z,87.46
2023-05-19T23:21:39.682Z,88.38
2023-05-19T23:24:07.905Z,88.54
2023-05-19T23:26:35.858Z,88.36
2023-05-19T23:29:05.215Z,90.16
2023-05-19T23:31:34.755Z,89.85
2023-05-19T23:34:03.015Z,90.00
2023-05-19T23:36:31.324Z,92.04
2023-05-19T23:38:59.284Z,92.61
2023-05-19T23:41:27.284Z,92.62
2023-05-19T23:43:55.217Z,93.14
2023-05-19T23:46:24.716Z,90.99
2023-05-19T23:48:52.723Z,90.96
2023-05-19T23:51:20.640Z,92.42
2023-05-19T23:53:48.584Z,93.29
2023-05-19T23:56:16.526Z,93.62
2023-05-19T23:58:44.588Z,93.71
